sensor_id;sensor_type;location;lat;lon;timestamp;P1;durP1;ratioP1;P2;durP2;ratioP2
75061;SDS011;63641;46.526;24.612;2022-12-18T00:02:14;20.08;;;13.52;;
75061;SDS011;63641;46.526;24.612;2022-12-18T00:04:41;18.50;;;12.48;;
75061;SDS011;63641;46.526;24.612;2022-12-18T00:07:08;17.10;;;13.43;;
75061;SDS011;63641;46.526;24.612;2022-12-18T00:09:35;17.83;;;12.65;;
75061;SDS011;63641;46.526;24.612;2022-12-18T00:12:06;17.58;;;11.95;;
75061;SDS011;63641;46.526;24.612;2022-12-18T00:14:41;17.08;;;11.40;;
75061;SDS011;63641;46.526;24.612;2022-12-18T00:17:08;17.23;;;12.45;;
75061;SDS011;63641;46.526;24.612;2022-12-18T00:19:35;17.00;;;12.20;;
75061;SDS011;63641;46.526;24.612;2022-12-18T00:22:01;17.92;;;12.40;;
75061;SDS011;63641;46.526;24.612;2022-12-18T00:24:29;17.60;;;12.00;;
75061;SDS011;63641;46.526;24.612;2022-12-18T00:26:55;15.60;;;11.63;;
75061;SDS011;63641;46.526;24.612;2022-12-18T00:29:22;19.70;;;12.82;;
75061;SDS011;63641;46.526;24.612;2022-12-18T00:31:49;17.38;;;12.68;;
75061;SDS011;63641;46.526;24.612;2022-12-18T00:34:15;20.73;;;13.23;;
75061;SDS011;63641;46.526;24.612;2022-12-18T00:36:42;14.88;;;10.10;;
75061;SDS011;63641;46.526;24.612;2022-12-18T00:39:10;17.75;;;12.35;;
75061;SDS011;63641;46.526;24.612;2022-12-18T00:41:38;19.00;;;13.23;;
75061;SDS011;63641;46.526;24.612;2022-12-18T00:44:23;19.25;;;11.98;;
75061;SDS011;63641;46.526;24.612;2022-12-18T00:46:50;21.60;;;14.57;;
75061;SDS011;63641;46.526;24.612;2022-12-18T00:49:17;20.45;;;13.85;;
75061;SDS011;63641;46.526;24.612;2022-12-18T00:51:45;22.20;;;14.10;;
75061;SDS011;63641;46.526;24.612;2022-12-18T00:54:13;22.50;;;14.07;;
75061;SDS011;63641;46.526;24.612;2022-12-18T00:56:40;23.42;;;14.60;;
75061;SDS011;63641;46.526;24.612;2022-12-18T00:59:18;22.08;;;13.52;;
75061;SDS011;63641;46.526;24.612;2022-12-18T01:01:45;27.45;;;15.70;;
75061;SDS011;63641;46.526;24.612;2022-12-18T01:04:13;22.63;;;14.68;;
75061;SDS011;63641;46.526;24.612;2022-12-18T01:06:40;24.75;;;15.10;;
75061;SDS011;63641;46.526;24.612;2022-12-18T01:09:06;25.02;;;14.57;;
75061;SDS011;63641;46.526;24.612;2022-12-18T01:11:33;24.27;;;14.35;;
75061;SDS011;63641;46.526;24.612;2022-12-18T01:14:00;26.27;;;14.93;;
75061;SDS011;63641;46.526;24.612;2022-12-18T01:16:27;25.45;;;14.82;;
75061;SDS011;63641;46.526;24.612;2022-12-18T01:18:54;26.02;;;15.77;;
75061;SDS011;63641;46.526;24.612;2022-12-18T01:21:21;21.85;;;14.65;;
75061;SDS011;63641;46.526;24.612;2022-12-18T01:23:53;25.85;;;16.33;;
75061;SDS011;63641;46.526;24.612;2022-12-18T01:26:21;26.42;;;16.20;;
75061;SDS011;63641;46.526;24.612;2022-12-18T01:28:49;23.10;;;15.95;;
75061;SDS011;63641;46.526;24.612;2022-12-18T01:31:23;26.13;;;15.60;;
75061;SDS011;63641;46.526;24.612;2022-12-18T01:33:52;27.77;;;15.70;;
75061;SDS011;63641;46.526;24.612;2022-12-18T01:36:24;24.92;;;16.00;;
75061;SDS011;63641;46.526;24.612;2022-12-18T01:38:53;26.10;;;16.23;;
75061;SDS011;63641;46.526;24.612;2022-12-18T01:41:22;24.40;;;14.55;;
75061;SDS011;63641;46.526;24.612;2022-12-18T01:43:54;21.35;;;15.50;;
75061;SDS011;63641;46.526;24.612;2022-12-18T01:46:25;23.88;;;15.77;;
75061;SDS011;63641;46.526;24.612;2022-12-18T01:48:54;25.08;;;15.60;;
75061;SDS011;63641;46.526;24.612;2022-12-18T01:51:23;23.73;;;15.85;;
75061;SDS011;63641;46.526;24.612;2022-12-18T01:53:51;24.90;;;16.08;;
75061;SDS011;63641;46.526;24.612;2022-12-18T01:56:19;22.55;;;15.63;;
75061;SDS011;63641;46.526;24.612;2022-12-18T01:59:01;23.10;;;15.55;;
75061;SDS011;63641;46.526;24.612;2022-12-18T02:01:31;23.45;;;15.05;;
75061;SDS011;63641;46.526;24.612;2022-12-18T02:07:25;23.90;;;14.93;;
75061;SDS011;63641;46.526;24.612;2022-12-18T02:10:08;24.35;;;15.27;;
75061;SDS011;63641;46.526;24.612;2022-12-18T02:12:49;23.10;;;15.98;;
75061;SDS011;63641;46.526;24.612;2022-12-18T02:18:07;25.70;;;15.77;;
75061;SDS011;63641;46.526;24.612;2022-12-18T02:20:41;21.83;;;14.63;;
75061;SDS011;63641;46.526;24.612;2022-12-18T02:23:21;21.17;;;14.65;;
75061;SDS011;63641;46.526;24.612;2022-12-18T02:28:49;21.60;;;14.50;;
75061;SDS011;63641;46.526;24.612;2022-12-18T02:31:21;24.50;;;14.98;;
75061;SDS011;63641;46.526;24.612;2022-12-18T02:33:53;23.92;;;14.80;;
75061;SDS011;63641;46.526;24.612;2022-12-18T02:36:23;24.40;;;15.43;;
75061;SDS011;63641;46.526;24.612;2022-12-18T02:38:51;23.40;;;16.35;;
75061;SDS011;63641;46.526;24.612;2022-12-18T02:41:20;25.48;;;15.38;;
75061;SDS011;63641;46.526;24.612;2022-12-18T02:43:58;23.92;;;13.88;;
75061;SDS011;63641;46.526;24.612;2022-12-18T02:46:29;25.85;;;14.57;;
75061;SDS011;63641;46.526;24.612;2022-12-18T02:49:02;24.88;;;16.35;;
75061;SDS011;63641;46.526;24.612;2022-12-18T03:05:47;27.60;;;17.48;;
75061;SDS011;63641;46.526;24.612;2022-12-18T03:08:21;28.10;;;16.58;;
75061;SDS011;63641;46.526;24.612;2022-12-18T03:11:12;25.90;;;16.42;;
75061;SDS011;63641;46.526;24.612;2022-12-18T03:13:48;26.92;;;16.52;;
75061;SDS011;63641;46.526;24.612;2022-12-18T03:16:26;26.40;;;16.25;;
75061;SDS011;63641;46.526;24.612;2022-12-18T03:18:58;29.52;;;16.92;;
75061;SDS011;63641;46.526;24.612;2022-12-18T03:21:37;30.45;;;17.52;;
75061;SDS011;63641;46.526;24.612;2022-12-18T03:24:08;27.50;;;17.95;;
75061;SDS011;63641;46.526;24.612;2022-12-18T03:26:38;32.90;;;18.17;;
75061;SDS011;63641;46.526;24.612;2022-12-18T03:29:12;27.15;;;16.17;;
75061;SDS011;63641;46.526;24.612;2022-12-18T03:31:47;28.95;;;17.52;;
75061;SDS011;63641;46.526;24.612;2022-12-18T03:34:24;29.40;;;17.88;;
75061;SDS011;63641;46.526;24.612;2022-12-18T03:36:57;28.73;;;16.90;;
75061;SDS011;63641;46.526;24.612;2022-12-18T03:39:24;27.58;;;16.58;;
75061;SDS011;63641;46.526;24.612;2022-12-18T03:44:28;29.58;;;18.42;;
75061;SDS011;63641;46.526;24.612;2022-12-18T03:47:06;28.52;;;16.85;;
75061;SDS011;63641;46.526;24.612;2022-12-18T03:53:13;28.85;;;17.20;;
75061;SDS011;63641;46.526;24.612;2022-12-18T03:55:59;28.60;;;16.90;;
75061;SDS011;63641;46.526;24.612;2022-12-18T03:58:27;22.80;;;16.40;;
75061;SDS011;63641;46.526;24.612;2022-12-18T04:00:56;25.70;;;15.13;;
75061;SDS011;63641;46.526;24.612;2022-12-18T04:03:28;24.75;;;16.77;;
75061;SDS011;63641;46.526;24.612;2022-12-18T04:05:57;26.00;;;16.38;;
75061;SDS011;63641;46.526;24.612;2022-12-18T04:08:27;24.25;;;14.75;;
75061;SDS011;63641;46.526;24.612;2022-12-18T04:10:54;29.25;;;16.33;;
75061;SDS011;63641;46.526;24.612;2022-12-18T04:13:27;26.30;;;15.55;;
75061;SDS011;63641;46.526;24.612;2022-12-18T04:15:56;27.60;;;16.92;;
75061;SDS011;63641;46.526;24.612;2022-12-18T04:18:23;26.50;;;15.98;;
75061;SDS011;63641;46.526;24.612;2022-12-18T04:20:49;26.75;;;17.35;;
75061;SDS011;63641;46.526;24.612;2022-12-18T04:23:16;24.75;;;15.45;;
75061;SDS011;63641;46.526;24.612;2022-12-18T04:25:43;26.20;;;15.50;;
75061;SDS011;63641;46.526;24.612;2022-12-18T04:28:09;25.25;;;16.23;;
75061;SDS011;63641;46.526;24.612;2022-12-18T04:30:36;27.65;;;15.95;;
75061;SDS011;63641;46.526;24.612;2022-12-18T04:33:03;25.25;;;15.88;;
75061;SDS011;63641;46.526;24.612;2022-12-18T04:35:29;26.02;;;16.15;;
75061;SDS011;63641;46.526;24.612;2022-12-18T04:37:56;23.67;;;15.05;;
75061;SDS011;63641;46.526;24.612;2022-12-18T04:40:23;20.80;;;13.82;;
75061;SDS011;63641;46.526;24.612;2022-12-18T04:42:50;22.02;;;13.75;;
75061;SDS011;63641;46.526;24.612;2022-12-18T04:45:17;22.67;;;14.30;;
75061;SDS011;63641;46.526;24.612;2022-12-18T04:47:44;24.27;;;15.32;;
75061;SDS011;63641;46.526;24.612;2022-12-18T04:50:10;22.58;;;14.20;;
75061;SDS011;63641;46.526;24.612;2022-12-18T04:52:37;21.35;;;13.90;;
75061;SDS011;63641;46.526;24.612;2022-12-18T04:55:04;22.25;;;14.80;;
75061;SDS011;63641;46.526;24.612;2022-12-18T04:57:31;23.25;;;13.30;;
75061;SDS011;63641;46.526;24.612;2022-12-18T04:59:58;19.20;;;12.00;;
75061;SDS011;63641;46.526;24.612;2022-12-18T05:02:25;20.35;;;13.05;;
75061;SDS011;63641;46.526;24.612;2022-12-18T05:04:51;20.52;;;13.52;;
75061;SDS011;63641;46.526;24.612;2022-12-18T05:07:19;23.73;;;14.50;;
75061;SDS011;63641;46.526;24.612;2022-12-18T05:09:45;19.20;;;14.25;;
75061;SDS011;63641;46.526;24.612;2022-12-18T05:12:12;21.52;;;14.10;;
75061;SDS011;63641;46.526;24.612;2022-12-18T05:14:39;23.38;;;14.02;;
75061;SDS011;63641;46.526;24.612;2022-12-18T05:17:05;19.70;;;12.30;;
75061;SDS011;63641;46.526;24.612;2022-12-18T05:19:32;23.15;;;13.02;;
75061;SDS011;63641;46.526;24.612;2022-12-18T05:21:59;20.55;;;12.30;;
75061;SDS011;63641;46.526;24.612;2022-12-18T05:24:27;20.67;;;12.70;;
75061;SDS011;63641;46.526;24.612;2022-12-18T05:26:54;20.90;;;12.55;;
75061;SDS011;63641;46.526;24.612;2022-12-18T05:29:20;21.23;;;13.32;;
75061;SDS011;63641;46.526;24.612;2022-12-18T05:31:47;20.58;;;12.48;;
75061;SDS011;63641;46.526;24.612;2022-12-18T05:34:14;19.73;;;13.45;;
75061;SDS011;63641;46.526;24.612;2022-12-18T05:36:41;19.73;;;12.45;;
75061;SDS011;63641;46.526;24.612;2022-12-18T05:39:08;17.83;;;11.77;;
75061;SDS011;63641;46.526;24.612;2022-12-18T05:41:35;21.75;;;13.35;;
75061;SDS011;63641;46.526;24.612;2022-12-18T05:44:01;19.48;;;12.50;;
75061;SDS011;63641;46.526;24.612;2022-12-18T05:46:30;16.73;;;12.55;;
75061;SDS011;63641;46.526;24.612;2022-12-18T05:48:59;20.63;;;13.95;;
75061;SDS011;63641;46.526;24.612;2022-12-18T05:51:27;15.98;;;11.05;;
75061;SDS011;63641;46.526;24.612;2022-12-18T05:53:54;19.77;;;13.25;;
75061;SDS011;63641;46.526;24.612;2022-12-18T05:56:21;20.38;;;12.27;;
75061;SDS011;63641;46.526;24.612;2022-12-18T05:58:52;19.88;;;12.38;;
75061;SDS011;63641;46.526;24.612;2022-12-18T06:01:21;21.58;;;13.63;;
75061;SDS011;63641;46.526;24.612;2022-12-18T06:03:50;19.65;;;13.13;;
75061;SDS011;63641;46.526;24.612;2022-12-18T06:06:21;19.85;;;12.68;;
75061;SDS011;63641;46.526;24.612;2022-12-18T06:08:53;19.17;;;13.27;;
75061;SDS011;63641;46.526;24.612;2022-12-18T06:11:22;21.02;;;13.45;;
75061;SDS011;63641;46.526;24.612;2022-12-18T06:13:51;19.98;;;12.60;;
75061;SDS011;63641;46.526;24.612;2022-12-18T06:16:24;20.45;;;14.00;;
75061;SDS011;63641;46.526;24.612;2022-12-18T06:18:51;19.20;;;13.00;;
75061;SDS011;63641;46.526;24.612;2022-12-18T06:21:18;22.45;;;15.00;;
75061;SDS011;63641;46.526;24.612;2022-12-18T06:23:45;19.67;;;13.10;;
75061;SDS011;63641;46.526;24.612;2022-12-18T06:26:13;20.10;;;13.98;;
75061;SDS011;63641;46.526;24.612;2022-12-18T06:28:40;22.15;;;14.27;;
75061;SDS011;63641;46.526;24.612;2022-12-18T06:31:07;19.45;;;13.63;;
75061;SDS011;63641;46.526;24.612;2022-12-18T06:33:35;18.90;;;14.05;;
75061;SDS011;63641;46.526;24.612;2022-12-18T06:36:08;20.65;;;14.50;;
75061;SDS011;63641;46.526;24.612;2022-12-18T06:38:38;22.13;;;14.32;;
75061;SDS011;63641;46.526;24.612;2022-12-18T06:41:07;20.85;;;14.50;;
75061;SDS011;63641;46.526;24.612;2022-12-18T06:43:37;22.52;;;13.85;;
75061;SDS011;63641;46.526;24.612;2022-12-18T06:46:07;20.77;;;13.88;;
75061;SDS011;63641;46.526;24.612;2022-12-18T06:48:35;21.67;;;13.73;;
75061;SDS011;63641;46.526;24.612;2022-12-18T06:51:01;22.73;;;15.18;;
75061;SDS011;63641;46.526;24.612;2022-12-18T06:53:29;26.98;;;16.08;;
75061;SDS011;63641;46.526;24.612;2022-12-18T06:56:00;25.15;;;16.60;;
75061;SDS011;63641;46.526;24.612;2022-12-18T06:58:35;22.33;;;14.30;;
75061;SDS011;63641;46.526;24.612;2022-12-18T07:01:03;24.95;;;16.00;;
75061;SDS011;63641;46.526;24.612;2022-12-18T07:03:31;27.08;;;16.20;;
75061;SDS011;63641;46.526;24.612;2022-12-18T07:05:58;22.55;;;15.18;;
75061;SDS011;63641;46.526;24.612;2022-12-18T07:08:24;23.05;;;15.23;;
75061;SDS011;63641;46.526;24.612;2022-12-18T07:10:51;23.17;;;15.25;;
75061;SDS011;63641;46.526;24.612;2022-12-18T07:13:21;22.98;;;15.15;;
75061;SDS011;63641;46.526;24.612;2022-12-18T07:15:49;24.33;;;14.63;;
75061;SDS011;63641;46.526;24.612;2022-12-18T07:18:15;21.05;;;15.18;;
75061;SDS011;63641;46.526;24.612;2022-12-18T07:20:46;22.10;;;14.35;;
75061;SDS011;63641;46.526;24.612;2022-12-18T07:23:14;22.90;;;15.00;;
75061;SDS011;63641;46.526;24.612;2022-12-18T07:25:40;27.90;;;16.17;;
75061;SDS011;63641;46.526;24.612;2022-12-18T07:28:07;23.88;;;16.38;;
75061;SDS011;63641;46.526;24.612;2022-12-18T07:30:42;24.85;;;16.17;;
75061;SDS011;63641;46.526;24.612;2022-12-18T07:33:13;26.38;;;15.60;;
75061;SDS011;63641;46.526;24.612;2022-12-18T07:35:39;25.52;;;15.68;;
75061;SDS011;63641;46.526;24.612;2022-12-18T07:38:06;23.48;;;15.73;;
75061;SDS011;63641;46.526;24.612;2022-12-18T07:40:33;24.50;;;15.18;;
75061;SDS011;63641;46.526;24.612;2022-12-18T07:43:00;25.88;;;16.48;;
75061;SDS011;63641;46.526;24.612;2022-12-18T07:45:27;26.90;;;16.65;;
75061;SDS011;63641;46.526;24.612;2022-12-18T07:47:53;28.15;;;15.73;;
75061;SDS011;63641;46.526;24.612;2022-12-18T07:50:20;23.67;;;15.52;;
75061;SDS011;63641;46.526;24.612;2022-12-18T07:52:47;24.58;;;15.38;;
75061;SDS011;63641;46.526;24.612;2022-12-18T07:55:14;21.95;;;15.80;;
75061;SDS011;63641;46.526;24.612;2022-12-18T07:57:41;24.40;;;15.55;;
75061;SDS011;63641;46.526;24.612;2022-12-18T08:00:16;27.27;;;15.93;;
75061;SDS011;63641;46.526;24.612;2022-12-18T08:02:44;26.75;;;17.25;;
75061;SDS011;63641;46.526;24.612;2022-12-18T08:05:11;24.55;;;15.70;;
75061;SDS011;63641;46.526;24.612;2022-12-18T08:07:37;23.63;;;14.35;;
75061;SDS011;63641;46.526;24.612;2022-12-18T08:10:04;25.10;;;15.98;;
75061;SDS011;63641;46.526;24.612;2022-12-18T08:12:32;24.60;;;14.98;;
75061;SDS011;63641;46.526;24.612;2022-12-18T08:14:58;25.80;;;15.70;;
75061;SDS011;63641;46.526;24.612;2022-12-18T08:17:25;25.05;;;15.57;;
75061;SDS011;63641;46.526;24.612;2022-12-18T08:19:52;25.77;;;16.05;;
75061;SDS011;63641;46.526;24.612;2022-12-18T08:22:19;22.30;;;14.63;;
75061;SDS011;63641;46.526;24.612;2022-12-18T08:24:45;24.80;;;14.55;;
75061;SDS011;63641;46.526;24.612;2022-12-18T08:27:12;20.60;;;13.25;;
75061;SDS011;63641;46.526;24.612;2022-12-18T08:29:54;23.95;;;15.57;;
75061;SDS011;63641;46.526;24.612;2022-12-18T08:32:26;24.17;;;14.43;;
75061;SDS011;63641;46.526;24.612;2022-12-18T08:34:54;26.90;;;15.77;;
75061;SDS011;63641;46.526;24.612;2022-12-18T08:37:21;23.73;;;14.25;;
75061;SDS011;63641;46.526;24.612;2022-12-18T08:39:52;26.05;;;15.18;;
75061;SDS011;63641;46.526;24.612;2022-12-18T08:42:18;25.45;;;15.85;;
75061;SDS011;63641;46.526;24.612;2022-12-18T08:45:04;25.35;;;15.40;;
75061;SDS011;63641;46.526;24.612;2022-12-18T08:47:31;28.35;;;18.40;;
75061;SDS011;63641;46.526;24.612;2022-12-18T08:49:57;29.15;;;17.85;;
75061;SDS011;63641;46.526;24.612;2022-12-18T08:52:24;30.27;;;18.80;;
75061;SDS011;63641;46.526;24.612;2022-12-18T08:54:54;31.50;;;18.50;;
75061;SDS011;63641;46.526;24.612;2022-12-18T08:57:20;26.00;;;16.75;;
75061;SDS011;63641;46.526;24.612;2022-12-18T08:59:47;24.95;;;16.45;;
75061;SDS011;63641;46.526;24.612;2022-12-18T09:02:14;28.08;;;16.00;;
75061;SDS011;63641;46.526;24.612;2022-12-18T09:04:41;27.27;;;16.50;;
75061;SDS011;63641;46.526;24.612;2022-12-18T09:07:08;24.67;;;15.68;;
75061;SDS011;63641;46.526;24.612;2022-12-18T09:09:35;24.77;;;15.02;;
75061;SDS011;63641;46.526;24.612;2022-12-18T09:12:02;24.38;;;15.07;;
75061;SDS011;63641;46.526;24.612;2022-12-18T09:14:29;27.10;;;15.27;;
75061;SDS011;63641;46.526;24.612;2022-12-18T09:16:58;25.88;;;15.20;;
75061;SDS011;63641;46.526;24.612;2022-12-18T09:19:24;25.10;;;15.82;;
75061;SDS011;63641;46.526;24.612;2022-12-18T09:21:51;26.42;;;16.58;;
75061;SDS011;63641;46.526;24.612;2022-12-18T09:24:18;24.02;;;14.82;;
75061;SDS011;63641;46.526;24.612;2022-12-18T09:26:45;23.95;;;14.57;;
75061;SDS011;63641;46.526;24.612;2022-12-18T09:29:13;25.95;;;15.90;;
75061;SDS011;63641;46.526;24.612;2022-12-18T09:31:41;23.27;;;15.73;;
75061;SDS011;63641;46.526;24.612;2022-12-18T09:34:08;29.35;;;16.80;;
75061;SDS011;63641;46.526;24.612;2022-12-18T09:36:35;24.98;;;15.45;;
75061;SDS011;63641;46.526;24.612;2022-12-18T09:39:02;22.90;;;14.10;;
75061;SDS011;63641;46.526;24.612;2022-12-18T09:41:39;21.23;;;13.85;;
75061;SDS011;63641;46.526;24.612;2022-12-18T09:47:11;21.65;;;13.68;;
75061;SDS011;63641;46.526;24.612;2022-12-18T09:49:46;23.40;;;14.82;;
75061;SDS011;63641;46.526;24.612;2022-12-18T09:52:51;24.08;;;14.02;;
75061;SDS011;63641;46.526;24.612;2022-12-18T09:55:16;23.30;;;15.23;;
75061;SDS011;63641;46.526;24.612;2022-12-18T10:00:36;25.45;;;15.82;;
75061;SDS011;63641;46.526;24.612;2022-12-18T10:03:03;23.13;;;14.57;;
75061;SDS011;63641;46.526;24.612;2022-12-18T10:06:15;24.77;;;15.45;;
75061;SDS011;63641;46.526;24.612;2022-12-18T10:11:19;25.27;;;15.23;;
75061;SDS011;63641;46.526;24.612;2022-12-18T10:13:55;26.58;;;14.60;;
75061;SDS011;63641;46.526;24.612;2022-12-18T10:16:37;27.88;;;15.10;;
75061;SDS011;63641;46.526;24.612;2022-12-18T10:27:23;25.42;;;15.90;;
75061;SDS011;63641;46.526;24.612;2022-12-18T10:29:52;25.45;;;16.42;;
75061;SDS011;63641;46.526;24.612;2022-12-18T10:32:23;22.15;;;14.25;;
75061;SDS011;63641;46.526;24.612;2022-12-18T10:34:54;25.73;;;16.02;;
75061;SDS011;63641;46.526;24.612;2022-12-18T10:37:27;23.88;;;14.98;;
75061;SDS011;63641;46.526;24.612;2022-12-18T10:40:06;27.02;;;16.15;;
75061;SDS011;63641;46.526;24.612;2022-12-18T10:42:47;26.27;;;15.27;;
75061;SDS011;63641;46.526;24.612;2022-12-18T10:45:29;23.33;;;15.68;;
75061;SDS011;63641;46.526;24.612;2022-12-18T10:47:56;24.05;;;15.30;;
75061;SDS011;63641;46.526;24.612;2022-12-18T10:50:32;21.27;;;14.02;;
75061;SDS011;63641;46.526;24.612;2022-12-18T10:53:22;23.85;;;14.88;;
75061;SDS011;63641;46.526;24.612;2022-12-18T10:55:52;24.98;;;15.15;;
75061;SDS011;63641;46.526;24.612;2022-12-18T11:01:05;23.38;;;13.65;;
75061;SDS011;63641;46.526;24.612;2022-12-18T11:06:05;22.48;;;14.18;;
75061;SDS011;63641;46.526;24.612;2022-12-18T11:08:37;23.67;;;16.23;;
75061;SDS011;63641;46.526;24.612;2022-12-18T11:11:07;22.88;;;15.13;;
75061;SDS011;63641;46.526;24.612;2022-12-18T11:13:57;23.63;;;15.40;;
75061;SDS011;63641;46.526;24.612;2022-12-18T11:19:09;22.52;;;14.45;;
75061;SDS011;63641;46.526;24.612;2022-12-18T11:21:39;23.20;;;15.70;;
75061;SDS011;63641;46.526;24.612;2022-12-18T11:24:15;25.92;;;16.70;;
75061;SDS011;63641;46.526;24.612;2022-12-18T11:26:59;26.23;;;15.50;;
75061;SDS011;63641;46.526;24.612;2022-12-18T11:29:33;24.00;;;15.27;;
75061;SDS011;63641;46.526;24.612;2022-12-18T11:32:27;22.50;;;14.70;;
75061;SDS011;63641;46.526;24.612;2022-12-18T11:34:59;21.95;;;15.10;;
75061;SDS011;63641;46.526;24.612;2022-12-18T11:37:31;25.15;;;16.45;;
75061;SDS011;63641;46.526;24.612;2022-12-18T11:40:00;22.20;;;14.50;;
75061;SDS011;63641;46.526;24.612;2022-12-18T11:50:25;25.15;;;15.90;;
75061;SDS011;63641;46.526;24.612;2022-12-18T11:52:58;22.83;;;13.85;;
75061;SDS011;63641;46.526;24.612;2022-12-18T11:55:43;23.77;;;14.47;;
75061;SDS011;63641;46.526;24.612;2022-12-18T12:01:42;23.23;;;14.43;;
75061;SDS011;63641;46.526;24.612;2022-12-18T12:07:12;20.90;;;13.70;;
75061;SDS011;63641;46.526;24.612;2022-12-18T12:12:36;23.17;;;13.82;;
75061;SDS011;63641;46.526;24.612;2022-12-18T12:18:08;18.90;;;13.25;;
75061;SDS011;63641;46.526;24.612;2022-12-18T12:23:20;19.75;;;13.05;;
75061;SDS011;63641;46.526;24.612;2022-12-18T12:26:01;22.58;;;12.68;;
75061;SDS011;63641;46.526;24.612;2022-12-18T12:40:03;18.20;;;11.32;;
75061;SDS011;63641;46.526;24.612;2022-12-18T12:42:52;18.23;;;11.65;;
75061;SDS011;63641;46.526;24.612;2022-12-18T12:51:23;17.08;;;11.88;;
75061;SDS011;63641;46.526;24.612;2022-12-18T12:53:53;20.58;;;13.63;;
75061;SDS011;63641;46.526;24.612;2022-12-18T12:56:22;20.63;;;11.88;;
75061;SDS011;63641;46.526;24.612;2022-12-18T12:59:02;18.70;;;12.05;;
75061;SDS011;63641;46.526;24.612;2022-12-18T13:01:41;19.50;;;13.07;;
75061;SDS011;63641;46.526;24.612;2022-12-18T13:04:36;16.98;;;11.48;;
75061;SDS011;63641;46.526;24.612;2022-12-18T13:07:16;19.25;;;13.23;;
75061;SDS011;63641;46.526;24.612;2022-12-18T13:13:04;17.15;;;12.15;;
75061;SDS011;63641;46.526;24.612;2022-12-18T13:15:41;18.00;;;11.85;;
75061;SDS011;63641;46.526;24.612;2022-12-18T13:18:16;16.90;;;12.02;;
75061;SDS011;63641;46.526;24.612;2022-12-18T13:23:35;21.67;;;13.52;;
75061;SDS011;63641;46.526;24.612;2022-12-18T13:31:00;20.40;;;12.68;;
75061;SDS011;63641;46.526;24.612;2022-12-18T13:33:38;18.17;;;11.93;;
75061;SDS011;63641;46.526;24.612;2022-12-18T13:36:30;21.92;;;13.10;;
75061;SDS011;63641;46.526;24.612;2022-12-18T13:41:52;18.90;;;12.48;;
75061;SDS011;63641;46.526;24.612;2022-12-18T13:46:56;19.52;;;12.63;;
75061;SDS011;63641;46.526;24.612;2022-12-18T13:49:36;19.33;;;13.13;;
75061;SDS011;63641;46.526;24.612;2022-12-18T13:54:43;18.63;;;13.65;;
75061;SDS011;63641;46.526;24.612;2022-12-18T13:57:27;20.42;;;13.02;;
75061;SDS011;63641;46.526;24.612;2022-12-18T14:00:14;18.63;;;12.32;;
75061;SDS011;63641;46.526;24.612;2022-12-18T14:02:44;21.00;;;13.55;;
75061;SDS011;63641;46.526;24.612;2022-12-18T14:05:23;20.70;;;12.88;;
75061;SDS011;63641;46.526;24.612;2022-12-18T14:07:53;22.52;;;14.23;;
75061;SDS011;63641;46.526;24.612;2022-12-18T14:10:21;20.60;;;13.35;;
75061;SDS011;63641;46.526;24.612;2022-12-18T14:13:09;18.35;;;13.10;;
75061;SDS011;63641;46.526;24.612;2022-12-18T14:15:43;20.60;;;13.30;;
75061;SDS011;63641;46.526;24.612;2022-12-18T14:20:59;20.27;;;13.00;;
75061;SDS011;63641;46.526;24.612;2022-12-18T14:23:38;18.88;;;13.55;;
75061;SDS011;63641;46.526;24.612;2022-12-18T14:28:53;19.65;;;13.07;;
75061;SDS011;63641;46.526;24.612;2022-12-18T14:31:23;20.17;;;12.02;;
75061;SDS011;63641;46.526;24.612;2022-12-18T14:33:52;22.17;;;13.25;;
75061;SDS011;63641;46.526;24.612;2022-12-18T14:36:26;18.55;;;12.38;;
75061;SDS011;63641;46.526;24.612;2022-12-18T14:38:55;17.77;;;11.85;;
75061;SDS011;63641;46.526;24.612;2022-12-18T14:41:23;17.15;;;12.07;;
75061;SDS011;63641;46.526;24.612;2022-12-18T14:43:52;19.08;;;12.00;;
75061;SDS011;63641;46.526;24.612;2022-12-18T14:46:34;18.35;;;12.68;;
75061;SDS011;63641;46.526;24.612;2022-12-18T14:51:52;17.35;;;12.23;;
75061;SDS011;63641;46.526;24.612;2022-12-18T14:54:21;19.17;;;13.05;;
75061;SDS011;63641;46.526;24.612;2022-12-18T14:57:51;18.08;;;12.73;;
75061;SDS011;63641;46.526;24.612;2022-12-18T15:00:06;18.25;;;11.35;;
75061;SDS011;63641;46.526;24.612;2022-12-18T15:02:41;19.77;;;13.18;;
75061;SDS011;63641;46.526;24.612;2022-12-18T15:07:49;21.35;;;14.95;;
75061;SDS011;63641;46.526;24.612;2022-12-18T15:10:22;18.80;;;13.25;;
75061;SDS011;63641;46.526;24.612;2022-12-18T15:18:12;20.70;;;13.48;;
75061;SDS011;63641;46.526;24.612;2022-12-18T15:23:22;21.67;;;14.20;;
75061;SDS011;63641;46.526;24.612;2022-12-18T15:26:01;20.35;;;13.75;;
75061;SDS011;63641;46.526;24.612;2022-12-18T15:28:50;23.23;;;13.68;;
75061;SDS011;63641;46.526;24.612;2022-12-18T15:36:25;22.33;;;13.18;;
75061;SDS011;63641;46.526;24.612;2022-12-18T15:38:53;17.67;;;13.00;;
75061;SDS011;63641;46.526;24.612;2022-12-18T15:41:34;20.75;;;13.07;;
75061;SDS011;63641;46.526;24.612;2022-12-18T15:44:02;18.45;;;11.82;;
75061;SDS011;63641;46.526;24.612;2022-12-18T15:46:43;16.85;;;10.98;;
75061;SDS011;63641;46.526;24.612;2022-12-18T15:49:10;18.52;;;11.60;;
75061;SDS011;63641;46.526;24.612;2022-12-18T15:51:36;18.77;;;11.52;;
75061;SDS011;63641;46.526;24.612;2022-12-18T15:54:05;16.65;;;12.00;;
75061;SDS011;63641;46.526;24.612;2022-12-18T15:56:37;20.25;;;12.15;;
75061;SDS011;63641;46.526;24.612;2022-12-18T15:59:23;20.73;;;13.70;;
75061;SDS011;63641;46.526;24.612;2022-12-18T16:01:50;17.92;;;12.07;;
75061;SDS011;63641;46.526;24.612;2022-12-18T16:04:20;20.00;;;13.80;;
75061;SDS011;63641;46.526;24.612;2022-12-18T16:06:48;18.67;;;12.52;;
75061;SDS011;63641;46.526;24.612;2022-12-18T16:09:36;18.13;;;11.70;;
75061;SDS011;63641;46.526;24.612;2022-12-18T16:12:02;16.27;;;12.65;;
75061;SDS011;63641;46.526;24.612;2022-12-18T16:14:30;18.65;;;12.75;;
75061;SDS011;63641;46.526;24.612;2022-12-18T16:17:02;19.95;;;13.70;;
75061;SDS011;63641;46.526;24.612;2022-12-18T16:19:31;19.00;;;12.82;;
75061;SDS011;63641;46.526;24.612;2022-12-18T16:21:58;19.33;;;12.25;;
75061;SDS011;63641;46.526;24.612;2022-12-18T16:24:25;13.45;;;8.82;;
75061;SDS011;63641;46.526;24.612;2022-12-18T16:26:55;16.60;;;10.70;;
75061;SDS011;63641;46.526;24.612;2022-12-18T16:29:25;15.52;;;10.50;;
75061;SDS011;63641;46.526;24.612;2022-12-18T16:31:57;15.98;;;10.73;;
75061;SDS011;63641;46.526;24.612;2022-12-18T16:34:29;15.40;;;10.27;;
75061;SDS011;63641;46.526;24.612;2022-12-18T16:37:01;26.13;;;16.10;;
75061;SDS011;63641;46.526;24.612;2022-12-18T16:39:35;26.98;;;16.63;;
75061;SDS011;63641;46.526;24.612;2022-12-18T16:42:05;24.02;;;14.85;;
75061;SDS011;63641;46.526;24.612;2022-12-18T16:44:35;21.70;;;14.70;;
75061;SDS011;63641;46.526;24.612;2022-12-18T16:47:02;26.23;;;16.13;;
75061;SDS011;63641;46.526;24.612;2022-12-18T16:49:30;23.77;;;15.90;;